createdAt,value
2023-01-30T00:01:29.884Z,95.08
2023-01-30T00:03:58.940Z,94.90
2023-01-30T00:06:27.396Z,95.03
2023-01-30T00:08:55.772Z,94.97
2023-01-30T00:11:24.713Z,94.88
2023-01-30T00:13:53.130Z,94.85
2023-01-30T00:16:21.545Z,94.87
2023-01-30T00:18:50.658Z,95.04
2023-01-30T00:21:19.334Z,95.15
2023-01-30T00:23:47.740Z,95.30
2023-01-30T00:26:16.241Z,95.43
2023-01-30T00:28:44.660Z,95.33
2023-01-30T00:31:13.082Z,95.49
2023-01-30T00:33:41.500Z,95.46
2023-01-30T00:36:10.801Z,95.38
2023-01-30T00:38:39.260Z,95.29
2023-01-30T00:41:07.913Z,95.23
2023-01-30T00:43:54.911Z,95.31
2023-01-30T00:46:49.875Z,95.25
2023-01-30T00:49:18.514Z,95.24
2023-01-30T00:51:47.238Z,95.20
2023-01-30T00:54:15.612Z,95.17
2023-01-30T00:56:43.972Z,95.30
2023-01-30T00:59:12.340Z,94.91
2023-01-30T01:01:41.015Z,95.20
2023-01-30T01:04:10.566Z,95.13
2023-01-30T01:06:39.515Z,95.14
2023-01-30T01:09:07.955Z,95.19
2023-01-30T01:11:36.718Z,95.17
2023-01-30T01:14:06.245Z,95.24
2023-01-30T01:16:36.069Z,95.30
2023-01-30T01:19:05.062Z,95.41
2023-01-30T01:21:33.431Z,95.28
2023-01-30T01:24:01.904Z,95.24
2023-01-30T01:26:30.342Z,95.23
2023-01-30T01:28:59.542Z,95.31
2023-01-30T01:31:28.103Z,95.25
2023-01-30T01:33:57.220Z,95.36
2023-01-30T01:36:51.666Z,95.57
2023-01-30T01:39:14.061Z,95.63
2023-01-30T01:41:42.406Z,95.62
2023-01-30T01:44:13.591Z,95.46
2023-01-30T01:46:52.527Z,95.71
2023-01-30T01:49:26.008Z,95.75
2023-01-30T01:52:17.023Z,95.88
2023-01-30T01:54:59.249Z,96.06
2023-01-30T01:57:32.723Z,96.03
2023-01-30T02:00:15.837Z,96.09
2023-01-30T02:02:54.201Z,96.06
2023-01-30T02:05:25.770Z,96.18
2023-01-30T02:08:22.430Z,96.14
2023-01-30T02:11:06.499Z,96.37
2023-01-30T02:13:35.196Z,96.33
2023-01-30T02:16:06.248Z,96.35
2023-01-30T02:18:38.162Z,96.41
2023-01-30T02:21:31.562Z,96.46
2023-01-30T02:24:24.585Z,96.50
2023-01-30T02:27:22.985Z,96.62
2023-01-30T02:30:18.875Z,96.46
2023-01-30T02:33:18.592Z,96.53
2023-01-30T02:35:50.063Z,96.40
2023-01-30T02:38:43.357Z,96.29
2023-01-30T02:41:53.984Z,96.33
2023-01-30T02:44:37.509Z,96.26
2023-01-30T02:47:20.168Z,96.21
2023-01-30T02:50:00.956Z,96.17
2023-01-30T02:52:30.695Z,96.08
2023-01-30T02:54:59.019Z,95.90
2023-01-30T02:57:27.754Z,96.00
2023-01-30T03:00:02.374Z,95.84
2023-01-30T03:02:33.676Z,95.74
2023-01-30T03:05:19.370Z,95.74
2023-01-30T03:08:23.011Z,95.44
2023-01-30T03:11:09.898Z,95.39
2023-01-30T03:14:09.476Z,95.34
2023-01-30T03:16:39.963Z,95.49
2023-01-30T03:19:13.352Z,95.27
2023-01-30T03:21:44.804Z,95.14
2023-01-30T03:24:14.504Z,95.09
2023-01-30T03:26:49.078Z,95.05
2023-01-30T03:29:17.443Z,95.19
2023-01-30T03:31:46.075Z,94.99
2023-01-30T03:34:14.516Z,95.04
2023-01-30T03:36:42.948Z,94.82
2023-01-30T03:39:11.312Z,94.88
2023-01-30T03:41:39.737Z,94.89
2023-01-30T03:44:08.521Z,94.75
2023-01-30T03:46:36.967Z,94.70
2023-01-30T03:49:05.458Z,94.68
2023-01-30T03:51:33.840Z,94.15
2023-01-30T03:54:02.231Z,93.72
2023-01-30T03:56:31.071Z,93.69
2023-01-30T03:58:59.417Z,93.76
2023-01-30T04:01:27.813Z,93.78
2023-01-30T04:03:56.287Z,93.56
2023-01-30T04:06:24.669Z,93.53
2023-01-30T04:08:55.835Z,93.55
2023-01-30T04:11:24.226Z,93.42
2023-01-30T04:13:52.581Z,93.08
2023-01-30T04:16:24.574Z,93.13
2023-01-30T04:18:53.395Z,93.00
2023-01-30T04:21:22.106Z,92.72
2023-01-30T04:23:50.501Z,92.78
2023-01-30T04:26:18.851Z,92.87
2023-01-30T04:28:47.207Z,92.73
2023-01-30T04:31:15.519Z,92.75
2023-01-30T04:33:43.948Z,92.85
2023-01-30T04:36:12.737Z,92.94
2023-01-30T04:38:41.450Z,93.06
2023-01-30T04:41:09.812Z,92.98
2023-01-30T04:43:38.215Z,93.05
2023-01-30T04:46:06.597Z,93.19
2023-01-30T04:48:34.856Z,92.94
2023-01-30T04:51:03.318Z,93.06
2023-01-30T04:53:32.004Z,92.95
2023-01-30T04:56:00.363Z,92.96
2023-01-30T04:58:28.748Z,92.98
2023-01-30T05:01:12.662Z,93.15
2023-01-30T05:03:41.116Z,92.97
2023-01-30T05:06:09.573Z,92.90
2023-01-30T05:08:37.898Z,92.87
2023-01-30T05:11:06.296Z,92.81
2023-01-30T05:13:34.637Z,92.53
2023-01-30T05:16:03.305Z,92.67
2023-01-30T05:18:31.689Z,92.51
2023-01-30T05:21:16.385Z,92.44
2023-01-30T05:23:45.408Z,92.19
2023-01-30T05:26:16.000Z,92.24
2023-01-30T05:28:44.599Z,92.19
2023-01-30T05:31:14.547Z,91.83
2023-01-30T05:33:43.262Z,91.71
2023-01-30T05:36:16.863Z,91.53
2023-01-30T05:38:46.382Z,91.29
2023-01-30T05:41:16.656Z,91.34
2023-01-30T05:43:50.349Z,91.05
2023-01-30T05:46:19.263Z,91.35
2023-01-30T05:48:48.102Z,91.16
2023-01-30T05:51:19.752Z,91.25
2023-01-30T05:53:48.677Z,91.62
2023-01-30T05:56:18.530Z,91.39
2023-01-30T05:58:52.733Z,91.54
2023-01-30T06:01:22.303Z,91.61
2023-01-30T06:03:50.836Z,91.75
2023-01-30T06:06:19.857Z,91.87
2023-01-30T06:08:53.912Z,91.93
2023-01-30T06:11:23.561Z,91.74
2023-01-30T06:13:52.109Z,91.88
2023-01-30T06:16:20.892Z,92.04
2023-01-30T06:18:49.517Z,91.98
2023-01-30T06:21:17.841Z,91.98
2023-01-30T06:23:46.476Z,91.73
2023-01-30T06:26:15.031Z,91.82
2023-01-30T06:28:43.571Z,91.79
2023-01-30T06:31:12.013Z,91.69
2023-01-30T06:33:40.492Z,91.62
2023-01-30T06:36:09.484Z,91.75
2023-01-30T06:38:37.852Z,91.79
2023-01-30T06:41:06.749Z,91.87
2023-01-30T06:43:35.056Z,91.97
2023-01-30T06:46:03.543Z,91.72
2023-01-30T06:48:31.986Z,91.86
2023-01-30T06:51:03.209Z,92.18
2023-01-30T06:53:31.834Z,92.13
2023-01-30T06:56:01.853Z,92.15
2023-01-30T06:58:30.302Z,92.06
2023-01-30T07:00:58.667Z,92.01
2023-01-30T07:03:26.963Z,91.82
2023-01-30T07:05:56.545Z,91.94
2023-01-30T07:08:25.340Z,91.89
2023-01-30T07:10:54.058Z,92.04
2023-01-30T07:13:23.547Z,91.85
2023-01-30T07:15:51.874Z,91.72
2023-01-30T07:18:20.200Z,91.78
2023-01-30T07:20:49.744Z,91.89
2023-01-30T07:23:18.279Z,91.90
2023-01-30T07:25:46.729Z,91.97
2023-01-30T07:28:15.108Z,92.08
2023-01-30T07:30:43.476Z,92.01
2023-01-30T07:33:12.020Z,92.13
2023-01-30T07:35:40.342Z,91.99
2023-01-30T07:38:08.838Z,91.88
2023-01-30T07:40:37.164Z,91.93
2023-01-30T07:43:10.081Z,92.13
2023-01-30T07:45:42.160Z,91.98
2023-01-30T07:48:13.596Z,92.02
2023-01-30T07:50:42.768Z,91.97
2023-01-30T07:53:14.626Z,91.61
2023-01-30T07:55:43.356Z,91.98
2023-01-30T07:58:16.577Z,91.89
2023-01-30T08:00:45.264Z,91.95
2023-01-30T08:03:16.118Z,92.08
2023-01-30T08:05:47.587Z,92.20
2023-01-30T08:08:16.499Z,92.15
2023-01-30T08:10:44.998Z,92.30
2023-01-30T08:13:13.512Z,92.51
2023-01-30T08:15:41.913Z,92.65
2023-01-30T08:18:10.255Z,92.80
2023-01-30T08:20:38.927Z,93.11
2023-01-30T08:23:07.330Z,93.24
2023-01-30T08:25:36.676Z,93.20
2023-01-30T08:28:05.248Z,93.40
2023-01-30T08:30:33.782Z,93.57
2023-01-30T08:33:02.668Z,93.57
2023-01-30T08:35:31.068Z,93.69
2023-01-30T08:37:59.635Z,93.88
2023-01-30T08:40:28.017Z,93.84
2023-01-30T08:42:56.517Z,93.99
2023-01-30T08:45:24.953Z,93.75
2023-01-30T08:47:54.384Z,93.86
2023-01-30T08:50:23.573Z,93.98
2023-01-30T08:52:52.021Z,94.00
2023-01-30T08:55:21.718Z,93.99
2023-01-30T08:57:51.383Z,94.23
2023-01-30T09:00:20.753Z,94.01
2023-01-30T09:02:53.282Z,93.97
2023-01-30T09:05:21.661Z,94.07
2023-01-30T09:07:50.732Z,93.78
2023-01-30T09:10:21.082Z,94.18
2023-01-30T09:12:52.766Z,93.84
2023-01-30T09:15:22.089Z,93.76
2023-01-30T09:17:52.875Z,94.01
2023-01-30T09:20:22.803Z,94.07
2023-01-30T09:22:52.331Z,93.98
2023-01-30T09:25:22.536Z,93.94
2023-01-30T09:27:54.221Z,93.82
2023-01-30T09:30:23.053Z,93.85
2023-01-30T09:32:51.484Z,93.86
2023-01-30T09:35:21.309Z,93.93
2023-01-30T09:37:53.042Z,93.96
2023-01-30T09:40:27.838Z,93.91
2023-01-30T09:43:15.477Z,93.88
2023-01-30T09:46:16.896Z,94.00
2023-01-30T09:49:22.229Z,93.70
2023-01-30T09:52:46.157Z,93.49
2023-01-30T09:55:25.658Z,93.33
2023-01-30T09:57:54.112Z,92.89
2023-01-30T10:00:44.464Z,93.19
2023-01-30T10:03:20.531Z,93.20
2023-01-30T10:06:05.367Z,93.55
2023-01-30T10:09:08.355Z,94.04
2023-01-30T10:12:07.423Z,94.32
2023-01-30T10:15:14.728Z,94.91
2023-01-30T10:18:27.838Z,95.15
2023-01-30T10:21:16.807Z,95.74
2023-01-30T10:24:36.223Z,96.31
2023-01-30T10:27:12.912Z,96.89
2023-01-30T10:29:46.677Z,97.23
2023-01-30T10:32:39.337Z,98.16
2023-01-30T10:35:20.647Z,98.57
2023-01-30T10:38:03.713Z,99.51
2023-01-30T10:45:13.897Z,100.00
2023-01-30T10:47:56.293Z,100.00
2023-01-30T10:51:16.352Z,100.00
2023-01-30T10:54:20.713Z,100.00
2023-01-30T10:57:14.314Z,100.00
2023-01-30T11:00:21.569Z,100.00
2023-01-30T11:03:26.229Z,100.00
2023-01-30T11:06:02.075Z,100.00
2023-01-30T11:08:36.642Z,100.00
2023-01-30T11:11:55.633Z,100.00
2023-01-30T11:14:27.029Z,100.00
2023-01-30T11:16:58.380Z,100.00
2023-01-30T11:19:34.748Z,100.00
2023-01-30T11:22:05.709Z,100.00
2023-01-30T11:24:45.138Z,100.00
2023-01-30T11:27:25.449Z,100.00
2023-01-30T11:30:22.456Z,100.00
2023-01-30T11:33:24.662Z,100.00
2023-01-30T11:36:43.447Z,100.00
2023-01-30T11:39:19.147Z,100.00
2023-01-30T11:42:04.969Z,100.00
2023-01-30T11:44:43.005Z,100.00
2023-01-30T11:47:29.430Z,100.00
2023-01-30T11:50:28.635Z,100.00
2023-01-30T11:53:19.096Z,100.00
2023-01-30T11:56:13.011Z,100.00
2023-01-30T11:58:59.112Z,100.00
2023-01-30T12:01:39.320Z,100.00
2023-01-30T12:04:12.565Z,100.00
2023-01-30T12:06:43.716Z,100.00
2023-01-30T12:09:40.778Z,100.00
2023-01-30T12:12:51.999Z,100.00
2023-01-30T12:15:26.388Z,100.00
2023-01-30T12:18:45.889Z,100.00
2023-01-30T12:22:14.265Z,100.00
2023-01-30T12:25:13.651Z,100.00
2023-01-30T12:28:35.699Z,100.00
2023-01-30T12:31:48.908Z,100.00
2023-01-30T12:34:27.686Z,100.00
2023-01-30T12:37:30.936Z,100.00
2023-01-30T12:40:40.730Z,100.00
2023-01-30T12:43:52.083Z,100.00
2023-01-30T12:46:53.869Z,100.00
2023-01-30T12:50:25.454Z,100.00
2023-01-30T12:54:20.434Z,100.00
2023-01-30T12:58:06.511Z,100.00
2023-01-30T13:01:42.954Z,100.00
2023-01-30T13:05:12.126Z,100.00
2023-01-30T13:08:28.869Z,100.00
2023-01-30T13:11:36.395Z,100.00
2023-01-30T13:14:26.861Z,100.00
2023-01-30T13:17:28.622Z,100.00
2023-01-30T13:20:42.818Z,100.00
2023-01-30T13:24:09.761Z,100.00
2023-01-30T13:26:42.798Z,100.00
2023-01-30T13:29:31.544Z,100.00
2023-01-30T13:32:47.244Z,100.00
2023-01-30T13:35:42.033Z,100.00
2023-01-30T13:38:44.878Z,100.00
2023-01-30T13:41:48.007Z,100.00
2023-01-30T13:44:28.273Z,100.00
2023-01-30T13:47:15.685Z,100.00
2023-01-30T13:50:41.500Z,100.00
2023-01-30T13:54:12.743Z,100.00
2023-01-30T13:56:52.302Z,100.00
2023-01-30T14:00:34.684Z,100.00
2023-01-30T14:03:32.633Z,100.00
2023-01-30T14:09:30.147Z,100.00
2023-01-30T14:12:04.098Z,100.00
2023-01-30T14:14:40.650Z,99.78
2023-01-30T14:17:19.313Z,99.64
2023-01-30T14:24:17.857Z,98.02
2023-01-30T14:27:32.006Z,98.30
2023-01-30T14:31:07.466Z,98.54
2023-01-30T14:34:00.911Z,97.26
2023-01-30T14:36:37.918Z,96.71
2023-01-30T14:40:00.813Z,94.82
2023-01-30T14:42:32.303Z,93.20
2023-01-30T14:45:17.390Z,91.75
2023-01-30T14:47:48.105Z,91.97
2023-01-30T14:50:53.003Z,92.11
2023-01-30T14:53:26.180Z,91.86
2023-01-30T14:56:04.694Z,92.31
2023-01-30T14:58:33.537Z,92.80
2023-01-30T15:01:02.415Z,92.76
2023-01-30T15:04:34.833Z,93.38
2023-01-30T15:07:48.547Z,93.81
2023-01-30T15:11:18.356Z,94.05
2023-01-30T15:15:03.151Z,94.26
2023-01-30T15:18:58.855Z,94.52
2023-01-30T15:25:16.134Z,94.53
2023-01-30T15:28:31.730Z,94.94
2023-01-30T15:31:28.988Z,94.97
2023-01-30T15:33:57.811Z,95.00
2023-01-30T15:36:46.396Z,95.12
2023-01-30T15:39:24.019Z,95.05
2023-01-30T15:42:05.948Z,95.08
2023-01-30T15:45:26.680Z,95.00
2023-01-30T15:48:28.720Z,95.32
2023-01-30T15:51:00.315Z,95.32
2023-01-30T15:53:40.181Z,95.29
2023-01-30T15:56:18.400Z,95.29
2023-01-30T15:58:47.283Z,95.17
2023-01-30T16:01:23.278Z,95.09
2023-01-30T16:03:53.323Z,95.03
2023-01-30T16:06:33.981Z,94.95
2023-01-30T16:09:19.643Z,94.83
2023-01-30T16:11:49.255Z,94.95
2023-01-30T16:14:21.768Z,94.87
2023-01-30T16:17:02.653Z,94.85
2023-01-30T16:19:35.890Z,94.76
2023-01-30T16:22:16.985Z,94.62
2023-01-30T16:24:50.681Z,94.75
2023-01-30T16:27:31.750Z,94.18
2023-01-30T16:30:07.915Z,94.18
2023-01-30T16:32:37.428Z,94.28
2023-01-30T16:35:27.389Z,94.29
2023-01-30T16:38:00.190Z,94.14
2023-01-30T16:40:42.516Z,94.08
2023-01-30T16:43:32.019Z,93.98
2023-01-30T16:46:47.400Z,94.07
2023-01-30T16:49:41.585Z,94.04
2023-01-30T16:52:43.781Z,93.93
2023-01-30T16:55:37.222Z,94.09
2023-01-30T16:58:07.681Z,94.07
2023-01-30T17:00:40.097Z,93.94
2023-01-30T17:03:26.060Z,94.07
2023-01-30T17:05:56.883Z,94.07
2023-01-30T17:08:49.371Z,94.04
2023-01-30T17:11:37.467Z,94.02
2023-01-30T17:14:24.458Z,94.10
2023-01-30T17:17:04.110Z,94.06
2023-01-30T17:19:32.510Z,94.05
2023-01-30T17:22:04.704Z,94.02
2023-01-30T17:24:35.554Z,94.11
2023-01-30T17:27:04.690Z,93.86
2023-01-30T17:29:42.423Z,93.90
2023-01-30T17:32:15.303Z,93.94
2023-01-30T17:34:43.998Z,93.99
2023-01-30T17:37:17.097Z,93.95
2023-01-30T17:39:45.961Z,94.41
2023-01-30T17:42:22.072Z,94.99
2023-01-30T17:44:50.694Z,95.96
2023-01-30T17:47:19.012Z,97.22
2023-01-30T17:49:47.658Z,98.16
2023-01-30T17:52:16.084Z,99.04
2023-01-30T17:54:44.424Z,99.81
2023-01-30T17:57:15.690Z,100.00
2023-01-30T17:59:44.199Z,100.00
2023-01-30T18:02:13.523Z,100.00
2023-01-30T18:04:41.913Z,100.00
2023-01-30T18:07:14.788Z,100.00
2023-01-30T18:09:43.224Z,100.00
2023-01-30T18:12:11.587Z,100.00
2023-01-30T18:14:40.002Z,100.00
2023-01-30T18:17:09.820Z,100.00
2023-01-30T18:19:39.787Z,100.00
2023-01-30T18:22:08.851Z,100.00
2023-01-30T18:24:37.840Z,100.00
2023-01-30T18:27:06.227Z,100.00
2023-01-30T18:29:34.610Z,100.00
2023-01-30T18:32:05.871Z,100.00
2023-01-30T18:34:34.284Z,100.00
2023-01-30T18:37:02.635Z,100.00
2023-01-30T18:39:32.105Z,100.00
2023-01-30T18:42:02.166Z,100.00
2023-01-30T18:44:32.542Z,100.00
2023-01-30T18:47:01.337Z,100.00
2023-01-30T18:49:30.397Z,100.00
2023-01-30T18:51:59.741Z,100.00
2023-01-30T18:54:28.181Z,100.00
2023-01-30T18:56:57.190Z,100.00
2023-01-30T18:59:26.445Z,100.00
2023-01-30T19:01:54.847Z,100.00
2023-01-30T19:04:23.228Z,100.00
2023-01-30T19:06:51.744Z,100.00
2023-01-30T19:09:21.461Z,100.00
2023-01-30T19:12:08.439Z,100.00
2023-01-30T19:14:37.319Z,100.00
2023-01-30T19:17:05.801Z,100.00
2023-01-30T19:19:37.126Z,100.00
2023-01-30T19:22:06.125Z,100.00
2023-01-30T19:24:34.572Z,100.00
2023-01-30T19:27:05.308Z,100.00
2023-01-30T19:29:33.667Z,100.00
2023-01-30T19:32:02.189Z,100.00
2023-01-30T19:34:30.891Z,100.00
2023-01-30T19:37:00.426Z,100.00
2023-01-30T19:39:30.156Z,100.00
2023-01-30T19:41:58.952Z,100.00
2023-01-30T19:44:27.289Z,100.00
2023-01-30T19:46:56.442Z,100.00
2023-01-30T19:49:25.604Z,100.00
2023-01-30T19:51:56.829Z,100.00
2023-01-30T19:54:25.829Z,100.00
2023-01-30T19:56:54.257Z,100.00
2023-01-30T19:59:23.075Z,100.00
2023-01-30T20:01:51.631Z,100.00
2023-01-30T20:04:19.951Z,100.00
2023-01-30T20:06:49.814Z,100.00
2023-01-30T20:09:19.228Z,100.00
2023-01-30T20:11:47.701Z,100.00
2023-01-30T20:14:17.065Z,100.00
2023-01-30T20:16:45.575Z,100.00
2023-01-30T20:19:16.970Z,100.00
2023-01-30T20:21:45.573Z,100.00
2023-01-30T20:24:15.595Z,100.00
2023-01-30T20:26:47.858Z,100.00
2023-01-30T20:29:17.959Z,100.00
2023-01-30T20:31:47.081Z,100.00
2023-01-30T20:34:15.574Z,100.00
2023-01-30T20:36:43.954Z,100.00
2023-01-30T20:39:14.179Z,100.00
2023-01-30T20:41:43.499Z,100.00
2023-01-30T20:44:13.808Z,100.00
2023-01-30T20:46:45.936Z,100.00
2023-01-30T20:49:21.152Z,100.00
2023-01-30T20:51:52.577Z,100.00
2023-01-30T20:54:23.350Z,100.00
2023-01-30T20:56:54.033Z,100.00
2023-01-30T20:59:24.672Z,100.00
2023-01-30T21:01:53.825Z,100.00
2023-01-30T21:04:24.556Z,100.00
2023-01-30T21:06:53.281Z,100.00
2023-01-30T21:09:23.594Z,100.00
2023-01-30T21:11:53.306Z,100.00
2023-01-30T21:14:22.144Z,100.00
2023-01-30T21:16:50.754Z,100.00
2023-01-30T21:19:19.355Z,100.00
2023-01-30T21:21:51.569Z,100.00
2023-01-30T21:24:27.194Z,100.00
2023-01-30T21:26:57.098Z,100.00
2023-01-30T21:29:28.465Z,100.00
2023-01-30T21:31:58.855Z,100.00
2023-01-30T21:34:27.559Z,100.00
2023-01-30T21:37:14.468Z,100.00
2023-01-30T21:40:01.712Z,100.00
2023-01-30T21:42:49.213Z,100.00
2023-01-30T21:45:20.816Z,100.00
2023-01-30T21:47:54.197Z,100.00
2023-01-30T21:50:22.667Z,100.00
2023-01-30T21:52:51.133Z,100.00
2023-01-30T21:55:20.524Z,100.00
2023-01-30T21:57:49.360Z,100.00
2023-01-30T22:00:18.456Z,100.00
2023-01-30T22:02:49.819Z,100.00
2023-01-30T22:05:18.805Z,100.00
2023-01-30T22:07:47.401Z,100.00
2023-01-30T22:10:16.438Z,100.00
2023-01-30T22:12:44.968Z,100.00
2023-01-30T22:15:13.486Z,100.00
2023-01-30T22:17:42.031Z,100.00
2023-01-30T22:20:12.212Z,100.00
2023-01-30T22:22:40.751Z,100.00
2023-01-30T22:25:10.519Z,100.00
2023-01-30T22:27:41.302Z,100.00
2023-01-30T22:30:12.891Z,100.00
2023-01-30T22:32:41.377Z,100.00
2023-01-30T22:35:10.112Z,100.00
2023-01-30T22:37:38.688Z,100.00
2023-01-30T22:40:09.100Z,100.00
2023-01-30T22:42:38.388Z,100.00
2023-01-30T22:45:09.688Z,100.00
2023-01-30T22:47:40.139Z,100.00
2023-01-30T22:50:11.484Z,100.00
2023-01-30T22:52:42.156Z,100.00
2023-01-30T22:55:11.679Z,100.00
2023-01-30T22:57:41.480Z,100.00
2023-01-30T23:00:12.870Z,100.00
2023-01-30T23:02:42.625Z,100.00
2023-01-30T23:05:12.968Z,100.00
2023-01-30T23:07:43.072Z,100.00
2023-01-30T23:10:13.678Z,100.00
2023-01-30T23:13:02.293Z,100.00
2023-01-30T23:15:50.840Z,100.00
2023-01-30T23:18:39.130Z,100.00
2023-01-30T23:21:12.243Z,100.00
2023-01-30T23:23:43.628Z,100.00
2023-01-30T23:26:14.020Z,100.00
2023-01-30T23:28:45.143Z,100.00
2023-01-30T23:31:26.867Z,100.00
2023-01-30T23:33:59.263Z,100.00
2023-01-30T23:36:29.419Z,100.00
2023-01-30T23:39:00.672Z,100.00
2023-01-30T23:41:32.499Z,100.00
2023-01-30T23:44:22.790Z,100.00
2023-01-30T23:46:53.065Z,100.00
2023-01-30T23:49:23.018Z,100.00
2023-01-30T23:51:53.026Z,100.00
2023-01-30T23:54:22.030Z,100.00
2023-01-30T23:56:52.534Z,100.00
2023-01-30T23:59:21.597Z,100.00
